< Typhoon 201323 2013 Season Typhoon 201325 >
Typhoon 201324 (DANAS)
General InformationTrack Information on Google MapsDetailed Wind InformationForecast History on Google MapsAccess Analytics MapList of All Images || NewsDisaster Info.WeblogTrackbackTyphoon FrontTwiphoonTyphoon Now!Typhoon ImaginationDisaster Info. XMLResourceGoogle EarthGE AnimationAtom FeedGeoJSON
Detalied Best Track (Time Zone = UTC)
Year Month Day Hour Lat. Long. Pressure (hPa) Wind (kt) Class Image Chart
2013 10 1 00 18.1 151.5 1008 0 2 Image Chart
2013 10 1 06 17.9 151.6 1008 0 2 Image Chart
2013 10 1 12 17.7 151.8 1008 0 2 Image Chart
2013 10 1 18 17.4 151.7 1008 0 2 Image Chart
2013 10 2 00 17.4 151.3 1008 0 2 Image Chart
2013 10 2 06 17.3 150.6 1006 0 2 Image Chart
2013 10 2 12 17.0 150.3 1006 0 2 Image Chart
2013 10 2 18 16.7 150.1 1004 0 2 Image Chart
2013 10 3 00 16.4 149.9 1004 0 2 Image Chart
2013 10 3 06 16.0 149.6 1002 0 2 Image Chart
2013 10 3 12 15.7 148.7 1002 0 2 Image Chart
2013 10 3 18 15.9 147.7 1002 0 2 Image Chart
2013 10 4 00 16.4 146.9 1002 0 2 Image Chart
2013 10 4 06 16.9 146.0 1000 35 3 Image Chart
2013 10 4 12 17.3 145.0 1000 35 3 Image Chart
2013 10 4 18 17.9 144.0 996 40 3 Image Chart
2013 10 5 00 18.2 142.3 994 40 3 Image Chart
2013 10 5 06 18.8 141.1 992 45 3 Image Chart
2013 10 5 12 19.3 139.7 985 55 4 Image Chart
2013 10 5 18 20.3 138.1 975 60 4 Image Chart
2013 10 6 00 21.2 136.5 970 65 5 Image Chart
2013 10 6 06 22.0 135.0 965 70 5 Image Chart
2013 10 6 12 22.7 133.5 955 75 5 Image Chart
2013 10 6 18 23.9 131.8 945 80 5 Image Chart
2013 10 6 21 24.5 131.0 940 85 5 Image Chart
2013 10 7 00 25.2 130.2 935 90 5 Image Chart
2013 10 7 03 25.9 129.2 935 90 5 Image Chart
2013 10 7 06 26.7 128.7 935 90 5 Image Chart
2013 10 7 09 27.4 128.0 935 90 5 Image Chart
2013 10 7 12 28.1 127.7 935 90 5 Image Chart
2013 10 7 15 28.9 127.3 935 90 5 Image Chart
2013 10 7 18 29.7 127.1 945 80 5 Image Chart
2013 10 7 21 30.4 127.1 945 80 5 Image Chart
2013 10 8 00 31.4 127.0 960 70 5 Image Chart
2013 10 8 03 32.2 127.3 965 65 5 Image Chart
2013 10 8 06 32.8 127.6 970 65 5 Image Chart
2013 10 8 09 33.8 128.6 975 60 4 Image Chart
2013 10 8 12 34.5 129.5 980 55 4 Image Chart
2013 10 8 15 34.9 130.4 985 50 4 Image Chart
2013 10 8 18 35.6 131.6 985 45 3 Image Chart
2013 10 8 21 36.5 132.9 990 45 3 Image Chart
2013 10 9 00 38.0 135.0 992 0 6 Image Chart
2013 10 9 06 37.9 135.8 1002 0 6 Image Chart
Japan Meteorological Agency Best Track Data | Correction Date : 2013-11-18
< Typhoon 201323 2013 Season Typhoon 201325 >

Help